Belford, NJ

11:59 AM EDT on September 02, 2014 (GMT -0400)
Port Monmouth | Change Station
CLOSE
Current Station
Personal Weather Station
Location: Middletown, NJ
Elevation: 23 ft
Nearby Weather Stations
Active Advisory: Air Quality Alert

Elev 23 ft 40.43 °N, 74.10 °W | Updated 11 minutes ago

Partly Cloudy
Partly Cloudy
92.1 °F
Feels Like 102 °F
N
3.2
Wind Variable Wind from ESE

Today
High -- | Low -- °F
--% Chance of Precip.
Yesterday
High -- | Low -- °F
Precip. -- in
6:24 AM 7:26 PM
First Quarter, 52% visible
Pressure 29.94 in
Visibility 10.0 miles
Clouds Clear
Heat Index 102 °F
Dew Point 74 °F
Humidity 55%
Rainfall 0.00 in
Snow Depth Not available.
UV 8 out of 12
Pollen 8.40 out of 12
Ozone Good
PM2.5 Moderate
Flu Activity Not available.
METAR KBLM 021555Z AUTO 30006KT 10SM CLR 31/22 A2994 RMK AO1

More Conditions Fewer Conditions

Pressure 29.94 in
Visibility 10.0 miles
Clouds Clear
Heat Index 102 °F
Dew Point 74 °F
Humidity 55%
Rainfall 0.00 in
Snow Depth Not available.
UV 8 out of 12
Pollen 8.40 out of 12
Ozone Good
PM2.5 Moderate
Flu Activity Not available.
METAR KBLM 021555Z AUTO 30006KT 10SM CLR 31/22 A2994 RMK AO1

More Conditions Fewer Conditions

10-Day Weather Forecast

Almanac

Astronomy

Sep. 02, 2014 Rise Set
Actual Time 6:24 AM EDT 7:26 PM EDT
Civil Twilight 5:56 AM EDT 7:54 PM EDT
Nautical Twilight 5:23 AM EDT 8:27 PM EDT
Astronomical Twilight 4:48 AM EDT 9:02 PM EDT
Moon 2:07 PM EDT No Moon Set
Length of Visible Light 13h 57m
Length of Day
13h 02m
Tomorrow will be 2m 35s shorter.
First Quarter, 52% of the Moon is Illuminated
Today
First Quarter
Sep 8
Full
Sep 15
Last Quarter
Sep 24
New
Oct 1
First Quarter

Today's Extremes

State Highs State Lows

Community

WunderPhotos

Upload Photos

1,749,705 photos uploaded!

Nearby

Air Quality

  Air Quality AQ Index Pollutant
Yesterday Good
PM2.5
Yesterday Good
OZONE
Current Moderate
PM2.5
Current Good
OZONE
Tuesday Moderate
OZONE
Tuesday Moderate
PM2.5
Wednesday Moderate
OZONE
Wednesday Good
PM2.5
Thursday Moderate
OZONE
Thursday Moderate
PM2.5

Snow Depth

Station Depth Elevation
No new snow has been reported.

Earthquake Activity

City Distance Mag. Time & Date
No recent earthquake activity has been reported nearby.
Minimum magnitude displayed is 2.5.

Coastal Water Temperatures

Place Temperature
Sandy Hook, NJ 77.0 °F
The Battery, NY 75.0 °F
Bergen Point West Reach, NJ 75.0 °F
Kings Point, NY 75.9 °F

Nearby Weather Stations